Time;durP1;ratioP1;P1;durP2;ratioP2;P2;SDS_P1;SDS_P2;PMS_P1;PMS_P2;Temp;Humidity;BMP_temperature;BMP_pressure;BME280_temperature;BME280_humidity;BME280_pressure;Samples;Min_cycle;Max_cycle;Signal;HPM_P1;HPM_P2
2021/12/30 00:01:25;;;;;;;34.50;18.73;;;;;;;-4.81;100.00;101100.67;1651238;84;21119;-91
2021/12/30 00:03:53;;;;;;;29.85;17.67;;;;;;;-4.82;100.00;101098.98;1669628;83;21072;-89
2021/12/30 00:06:23;;;;;;;30.43;17.00;;;;;;;-4.81;100.00;101101.95;1677256;83;21591;-91
2021/12/30 00:08:54;;;;;;;29.05;17.37;;;;;;;-4.83;100.00;101099.83;1691178;83;21563;-92
2021/12/30 00:11:22;;;;;;;31.48;17.70;;;;;;;-4.85;100.00;101109.58;1677136;83;21098;-91
2021/12/30 00:13:50;;;;;;;32.05;18.52;;;;;;;-4.89;100.00;101110.02;1687710;83;21102;-91
2021/12/30 00:16:18;;;;;;;30.85;17.87;;;;;;;-4.89;100.00;101117.64;1686688;83;21103;-90
2021/12/30 00:18:47;;;;;;;35.33;18.17;;;;;;;-4.89;100.00;101115.09;1679576;83;21220;-93
2021/12/30 00:21:15;;;;;;;28.77;17.82;;;;;;;-4.86;100.00;101118.91;1710042;81;21063;-95
2021/12/30 00:23:43;;;;;;;31.23;18.10;;;;;;;-4.85;100.00;101121.87;1659401;84;21205;-96
2021/12/30 00:26:10;;;;;;;25.48;14.83;;;;;;;-4.79;100.00;101119.72;1650965;84;21692;-95
2021/12/30 00:28:38;;;;;;;32.60;17.52;;;;;;;-4.72;100.00;101120.55;1673200;83;21220;-94
2021/12/30 00:31:08;;;;;;;30.15;16.57;;;;;;;-4.68;100.00;101118.41;1658323;84;21594;-90
2021/12/30 00:33:36;;;;;;;29.70;17.17;;;;;;;-4.65;100.00;101123.48;1655642;83;21138;-94
2021/12/30 00:36:06;;;;;;;28.50;17.15;;;;;;;-4.64;100.00;101126.02;1686284;83;21504;-91
2021/12/30 00:38:36;;;;;;;35.92;19.02;;;;;;;-4.60;100.00;101121.77;1649646;84;21815;-93
2021/12/30 00:41:04;;;;;;;27.07;17.75;;;;;;;-4.55;100.00;101120.47;1660848;83;21190;-93
2021/12/30 00:43:31;;;;;;;30.12;17.02;;;;;;;-4.51;100.00;101126.81;1641682;84;21082;-91
2021/12/30 00:45:58;;;;;;;27.48;17.48;;;;;;;-4.46;100.00;101123.84;1622156;86;21161;-92
2021/12/30 00:48:25;;;;;;;28.55;17.50;;;;;;;-4.42;100.00;101128.48;1635334;84;21689;-93
2021/12/30 00:51:10;;;;;;;33.08;19.65;;;;;;;-4.38;100.00;101130.59;1652575;84;21634;-92
2021/12/30 00:53:33;;;;;;;31.05;17.95;;;;;;;-4.39;100.00;101124.64;1644283;84;21283;-94
2021/12/30 00:56:01;;;;;;;44.38;25.45;;;;;;;-4.41;100.00;101129.31;1660860;84;21700;-94
2021/12/30 00:58:28;;;;;;;42.00;24.02;;;;;;;-4.47;100.00;101121.28;1622845;86;21664;-91
2021/12/30 01:00:56;;;;;;;38.00;21.97;;;;;;;-4.50;100.00;101123.42;1619909;86;21161;-89
2021/12/30 01:03:23;;;;;;;43.13;25.65;;;;;;;-4.48;100.00;101115.78;1655911;84;21113;-91
2021/12/30 01:05:51;;;;;;;43.45;26.07;;;;;;;-4.51;100.00;101115.37;1620708;86;21593;-91
2021/12/30 01:08:19;;;;;;;44.65;24.67;;;;;;;-4.52;100.00;101111.58;1623908;86;21160;-91
2021/12/30 01:10:46;;;;;;;38.05;22.65;;;;;;;-4.53;100.00;101114.56;1619831;86;21171;-90
2021/12/30 01:13:23;;;;;;;38.50;23.27;;;;;;;-4.52;100.00;101117.48;1665723;83;21093;-90
2021/12/30 01:20:58;;;;;;;41.90;25.00;;;;;;;-4.57;100.00;101124.30;1672948;83;21053;-91
2021/12/30 01:23:26;;;;;;;43.85;25.75;;;;;;;-4.58;100.00;101126.86;1633742;85;21164;-90
2021/12/30 01:25:58;;;;;;;41.58;24.65;;;;;;;-4.61;100.00;101135.34;1612384;86;21683;-89
2021/12/30 01:28:27;;;;;;;39.92;23.60;;;;;;;-4.62;100.00;101138.30;1638849;85;21146;-90
2021/12/30 01:30:55;;;;;;;45.30;26.23;;;;;;;-4.63;100.00;101137.05;1633242;86;21758;-92
2021/12/30 01:33:22;;;;;;;42.08;24.60;;;;;;;-4.62;100.00;101138.73;1615185;86;21188;-92
2021/12/30 01:35:49;;;;;;;46.25;26.25;;;;;;;-4.62;100.00;101134.92;1650228;85;21145;-92
2021/12/30 01:38:16;;;;;;;47.53;26.62;;;;;;;-4.62;100.00;101133.66;1649806;85;21532;-93
2021/12/30 01:40:48;;;;;;;47.05;26.82;;;;;;;-4.63;100.00;101131.52;1667113;83;21648;-94
2021/12/30 01:43:16;;;;;;;;;;;;;;;-4.63;100.00;101131.52;1661893;83;22103;-90
2021/12/30 01:45:43;;;;;;;43.10;24.05;;;;;;;-4.64;100.00;101129.00;1636171;85;20522;-92
2021/12/30 01:48:11;;;;;;;39.25;22.73;;;;;;;-4.62;100.00;101140.84;1682684;83;21171;-91
2021/12/30 01:50:39;;;;;;;39.48;21.65;;;;;;;-4.58;100.00;101128.13;1652599;84;21070;-91
2021/12/30 01:53:08;;;;;;;35.17;21.97;;;;;;;-4.53;100.00;101130.22;1667113;83;21098;-93
2021/12/30 01:55:37;;;;;;;38.70;23.62;;;;;;;-4.50;100.00;101129.78;1683218;83;21614;-92
2021/12/30 01:58:06;;;;;;;39.33;23.30;;;;;;;-4.47;100.00;101128.50;1668090;83;21083;-96
2021/12/30 02:00:37;;;;;;;43.25;23.50;;;;;;;-4.46;100.00;101134.02;1694914;83;21129;-92
2021/12/30 02:03:05;;;;;;;39.55;22.37;;;;;;;-4.44;100.00;101133.99;1689109;83;21118;-93
2021/12/30 02:05:43;;;;;;;;;;;;;;;;;;;;;
2021/12/30 02:08:10;;;;;;;;;;;;;;;-4.41;100.00;101133.13;1695449;82;21079;-93
2021/12/30 02:10:40;;;;;;;36.88;20.75;;;;;;;-4.37;100.00;101142.45;1675724;83;20268;-93
2021/12/30 02:13:14;;;;;;;38.85;22.45;;;;;;;-4.36;100.00;101149.20;1658947;84;21838;-95
2021/12/30 02:15:43;;;;;;;44.48;23.87;;;;;;;-4.38;100.00;101150.92;1688739;83;21130;-92
2021/12/30 02:18:14;;;;;;;37.50;20.90;;;;;;;-4.43;100.00;101154.76;1694583;83;21107;-94
2021/12/30 02:20:54;;;;;;;37.88;22.32;;;;;;;-4.45;100.00;101158.56;1697826;83;21128;-94
2021/12/30 02:23:29;;;;;;;31.82;19.02;;;;;;;-4.48;100.00;101153.91;1664827;83;21125;-96
2021/12/30 02:26:01;;;;;;;34.53;19.45;;;;;;;-4.50;100.00;101151.83;1684624;83;21189;-94
2021/12/30 02:28:32;;;;;;;31.68;20.17;;;;;;;-4.52;100.00;101154.80;1668669;83;21062;-94
2021/12/30 02:31:15;;;;;;;34.20;20.70;;;;;;;-4.52;100.00;101153.08;1685193;83;21042;-92
2021/12/30 02:33:43;;;;;;;41.75;22.80;;;;;;;-4.48;100.00;101159.86;1667961;83;21098;-92
2021/12/30 02:36:13;;;;;;;36.68;22.35;;;;;;;-4.45;100.00;101156.02;1687089;83;21582;-93
2021/12/30 02:38:44;;;;;;;40.50;23.53;;;;;;;-4.45;100.00;101158.56;1661159;84;21391;-92
2021/12/30 02:41:15;;;;;;;32.58;18.98;;;;;;;-4.44;100.00;101155.61;1664399;83;22280;-94
2021/12/30 02:43:38;;;;;;;36.05;21.12;;;;;;;-4.42;100.00;101162.81;1686950;83;21078;-89
2021/12/30 02:46:05;;;;;;;31.70;20.37;;;;;;;-4.41;100.00;101162.37;1684580;82;21057;-91
2021/12/30 02:48:37;;;;;;;35.48;20.05;;;;;;;-4.40;100.00;101162.36;1683931;83;21053;-91
2021/12/30 02:51:08;;;;;;;28.98;17.57;;;;;;;-4.40;100.00;101162.80;1663753;83;21165;-94
2021/12/30 02:53:35;;;;;;;35.95;19.75;;;;;;;-4.37;100.00;101169.15;1676975;83;21131;-96
2021/12/30 02:56:06;;;;;;;30.43;19.32;;;;;;;-4.35;100.00;101171.23;1677316;83;22031;-94
2021/12/30 02:58:33;;;;;;;31.95;18.37;;;;;;;-4.35;100.00;101170.83;1685321;83;21090;-95
2021/12/30 03:01:07;;;;;;;27.90;18.02;;;;;;;-4.32;100.00;101176.32;1676268;83;21525;-95
2021/12/30 03:03:36;;;;;;;29.42;17.73;;;;;;;-4.31;100.00;101172.48;1681490;83;21635;-91
2021/12/30 03:06:06;;;;;;;32.83;19.57;;;;;;;-4.30;100.00;101169.10;1678471;84;21086;-93
2021/12/30 03:08:34;;;;;;;29.98;18.00;;;;;;;-4.28;100.00;101169.95;1642757;85;21103;-96
2021/12/30 03:11:02;;;;;;;32.15;18.50;;;;;;;-4.26;100.00;101168.66;1657423;84;21142;-96
2021/12/30 03:13:31;;;;;;;32.48;18.57;;;;;;;-4.25;100.00;101170.80;1616275;86;21548;-95
2021/12/30 03:16:11;;;;;;;26.62;17.55;;;;;;;-4.23;100.00;101171.20;1653266;84;21171;-96
2021/12/30 03:18:40;;;;;;;25.92;15.38;;;;;;;-4.22;100.00;101170.34;1626135;85;21161;-92
2021/12/30 03:21:10;;;;;;;31.82;18.52;;;;;;;-4.23;100.00;101169.92;1617875;87;21093;-96
2021/12/30 03:23:37;;;;;;;30.27;17.90;;;;;;;-4.23;100.00;101168.66;1600778;86;21082;-94
2021/12/30 03:26:07;;;;;;;29.15;17.75;;;;;;;-4.25;100.00;101167.81;1610483;86;21086;-94
2021/12/30 03:28:35;;;;;;;32.05;18.17;;;;;;;-4.26;100.00;101169.92;1667866;83;21190;-96
2021/12/30 03:31:03;;;;;;;33.90;19.32;;;;;;;-4.31;100.00;101164.03;1621782;85;21691;-96
2021/12/30 03:33:32;;;;;;;29.55;17.82;;;;;;;-4.35;100.00;101171.23;1642355;85;21043;-95
2021/12/30 03:36:00;;;;;;;30.77;18.75;;;;;;;-4.40;100.00;101175.50;1613885;87;21575;-90
2021/12/30 03:38:31;;;;;;;34.30;18.82;;;;;;;-4.45;100.00;101173.81;1650910;84;21104;-96
2021/12/30 03:40:59;;;;;;;30.15;18.02;;;;;;;-4.50;100.00;101171.72;1660001;84;21163;-94
2021/12/30 03:43:27;;;;;;;29.50;17.37;;;;;;;-4.57;100.00;101185.31;1641472;86;21042;-94
2021/12/30 03:45:56;;;;;;;31.73;16.93;;;;;;;-4.61;100.00;101183.20;1619065;87;21118;-95
2021/12/30 03:48:32;;;;;;;28.47;17.80;;;;;;;-4.62;100.00;101192.12;1667254;83;21059;-93
2021/12/30 03:50:54;;;;;;;29.98;17.90;;;;;;;-4.63;100.00;101191.69;1617046;85;21157;-95
2021/12/30 03:53:22;;;;;;;27.70;18.12;;;;;;;-4.63;100.00;101189.15;1658141;84;21909;-96
2021/12/30 03:55:51;;;;;;;31.73;19.12;;;;;;;-4.63;100.00;101195.06;1661406;84;21169;-95
2021/12/30 03:58:21;;;;;;;29.60;16.67;;;;;;;-4.64;100.00;101190.83;1626035;85;21082;-91
2021/12/30 04:00:49;;;;;;;30.20;18.15;;;;;;;-4.63;100.00;101194.23;1630255;86;22103;-93
2021/12/30 04:03:16;;;;;;;29.57;17.00;;;;;;;-4.62;100.00;101195.93;1661571;84;21150;-92
2021/12/30 04:05:44;;;;;;;32.03;17.90;;;;;;;-4.63;100.00;101191.69;1606816;86;22128;-96
2021/12/30 04:08:12;;;;;;;29.70;17.85;;;;;;;-4.63;100.00;101191.69;1623499;86;21069;-91
2021/12/30 04:10:39;;;;;;;31.37;18.32;;;;;;;-4.62;100.00;101195.48;1665005;84;21361;-88
2021/12/30 04:13:06;;;;;;;25.43;15.55;;;;;;;-4.61;100.00;101192.54;1634271;85;21128;-96
2021/12/30 04:15:33;;;;;;;32.75;19.20;;;;;;;-4.60;100.00;101194.20;1613524;86;21109;-94
2021/12/30 04:18:01;;;;;;;29.63;18.30;;;;;;;-4.60;100.00;101204.38;1612636;87;21199;-90
2021/12/30 04:20:28;;;;;;;27.52;17.17;;;;;;;-4.60;100.00;101206.91;1614306;86;21234;-93
2021/12/30 04:22:57;;;;;;;31.17;19.40;;;;;;;-4.61;100.00;101211.16;1606387;86;21960;-89
2021/12/30 04:25:24;;;;;;;32.53;18.80;;;;;;;-4.62;100.00;101213.72;1583876;88;21649;-89
2021/12/30 04:27:51;;;;;;;33.13;19.07;;;;;;;-4.65;100.00;101220.07;1589584;86;21145;-89
2021/12/30 04:30:19;;;;;;;34.67;19.55;;;;;;;-4.69;100.00;101220.94;1606703;87;21201;-90
2021/12/30 04:32:46;;;;;;;34.83;20.80;;;;;;;-4.73;100.00;101229.41;1617257;86;21062;-92
2021/12/30 04:35:14;;;;;;;34.78;20.37;;;;;;;-4.77;100.00;101231.94;1593436;86;21032;-92
2021/12/30 04:37:42;;;;;;;34.80;20.72;;;;;;;-4.80;100.00;101231.97;1589181;88;21136;-91
2021/12/30 04:40:13;;;;;;;30.45;18.15;;;;;;;-4.82;100.00;101240.01;1599771;87;21640;-89
2021/12/30 04:42:42;;;;;;;31.02;16.93;;;;;;;-4.84;100.00;101239.59;1579739;87;22037;-92
2021/12/30 04:45:13;;;;;;;31.62;19.62;;;;;;;-4.84;100.00;101241.70;1590388;88;21163;-91
2021/12/30 04:47:41;;;;;;;28.65;17.00;;;;;;;-4.82;100.00;101239.17;1573456;89;21130;-91
2021/12/30 04:50:12;;;;;;;29.92;16.80;;;;;;;-4.86;100.00;101235.80;1587714;88;21072;-92
2021/12/30 04:52:41;;;;;;;32.93;19.12;;;;;;;-4.83;100.00;101235.77;1616777;86;21063;-92
2021/12/30 04:55:10;;;;;;;38.35;20.10;;;;;;;-4.79;100.00;101240.02;1632119;84;20994;-93
2021/12/30 04:57:38;;;;;;;30.95;18.32;;;;;;;-4.79;100.00;101246.37;1599627;87;21637;-93
2021/12/30 05:00:09;;;;;;;38.33;20.97;;;;;;;-4.81;100.00;101241.70;1640405;85;21033;-95
2021/12/30 05:03:02;;;;;;;41.92;22.60;;;;;;;-4.81;100.00;101242.97;1639197;86;21172;-95
2021/12/30 05:05:29;;;;;;;40.00;21.57;;;;;;;-4.61;100.00;101248.46;1678503;83;21102;-90
2021/12/30 05:07:48;;;;;;;39.35;21.40;;;;;;;-4.48;100.00;101247.58;1644073;84;21191;-91
2021/12/30 05:10:15;;;;;;;46.68;21.60;;;;;;;-4.38;100.00;101247.55;1628683;85;21612;-93
2021/12/30 05:12:42;;;;;;;62.60;25.80;;;;;;;-4.35;100.00;101255.16;1678379;83;21332;-91
2021/12/30 05:15:14;;;;;;;43.45;23.60;;;;;;;-4.34;100.00;101259.39;1627092;85;21853;-90
2021/12/30 05:17:41;;;;;;;35.58;19.87;;;;;;;-4.25;100.00;101258.09;1680012;83;21619;-93
2021/12/30 05:20:12;;;;;;;40.70;22.75;;;;;;;-4.03;100.00;101261.41;1684964;83;21168;-94
2021/12/30 05:22:42;;;;;;;39.15;21.52;;;;;;;-3.88;100.00;101268.11;1673819;83;21127;-91
2021/12/30 05:25:12;;;;;;;43.23;23.70;;;;;;;-3.92;100.00;101272.81;1677232;83;21483;-91
2021/12/30 05:27:39;;;;;;;33.13;19.42;;;;;;;-3.99;100.00;101272.42;1669667;84;21203;-89
2021/12/30 05:30:09;;;;;;;48.10;23.38;;;;;;;-4.05;100.00;101275.83;1671826;84;21180;-94
2021/12/30 05:32:41;;;;;;;33.98;20.17;;;;;;;-4.10;100.00;101286.87;1673652;83;21082;-90
2021/12/30 05:35:10;;;;;;;35.05;21.05;;;;;;;-4.16;100.00;101289.87;1681684;83;21532;-90
2021/12/30 05:37:38;;;;;;;33.28;20.30;;;;;;;-4.22;100.00;101284.80;1693044;83;21090;-89
2021/12/30 05:40:09;;;;;;;30.97;18.48;;;;;;;-4.24;100.00;101289.45;1658409;83;21141;-90
2021/12/30 05:42:37;;;;;;;36.68;19.50;;;;;;;-4.25;100.00;101292.88;1661294;83;21185;-91
2021/12/30 05:45:06;;;;;;;38.90;21.33;;;;;;;-4.28;100.00;101294.97;1677224;83;21148;-90
2021/12/30 05:47:34;;;;;;;35.60;20.52;;;;;;;-4.30;100.00;101294.16;1695840;82;21166;-93
2021/12/30 05:50:05;;;;;;;38.83;21.07;;;;;;;-4.31;100.00;101298.81;1662581;84;21245;-91
2021/12/30 05:52:33;;;;;;;33.83;19.92;;;;;;;-4.33;100.00;101301.37;1671350;83;21074;-93
2021/12/30 05:55:00;;;;;;;36.85;21.87;;;;;;;-4.33;100.00;101304.32;1678506;83;21520;-90
2021/12/30 05:57:27;;;;;;;33.25;19.90;;;;;;;-4.32;100.00;101300.93;1681806;83;21112;-91
2021/12/30 05:59:54;;;;;;;38.08;20.88;;;;;;;-4.34;100.00;101307.30;1675968;83;21583;-92
2021/12/30 06:02:21;;;;;;;42.05;24.02;;;;;;;-4.37;100.00;101312.38;1673631;83;21073;-94
2021/12/30 06:04:49;;;;;;;38.58;23.07;;;;;;;-4.46;100.00;101311.98;1665594;83;21549;-91
2021/12/30 06:07:16;;;;;;;39.08;22.10;;;;;;;-4.51;100.00;101303.50;1697216;83;21110;-93
2021/12/30 06:09:46;;;;;;;43.40;23.40;;;;;;;-4.56;100.00;101303.94;1688199;83;21198;-91
2021/12/30 06:12:12;;;;;;;36.48;21.25;;;;;;;-4.60;100.00;101306.05;1670825;83;21138;-91
2021/12/30 06:14:39;;;;;;;41.53;22.65;;;;;;;-4.65;100.00;101302.67;1692419;83;21128;-94
2021/12/30 06:17:08;;;;;;;40.63;23.32;;;;;;;-4.65;100.00;101312.84;1682304;83;21102;-92
2021/12/30 06:19:35;;;;;;;42.35;22.95;;;;;;;-4.68;100.00;101317.52;1670575;83;21350;-89
2021/12/30 06:22:03;;;;;;;43.83;25.70;;;;;;;-4.69;100.00;101313.71;1670889;83;21858;-91
2021/12/30 06:24:30;;;;;;;47.08;24.63;;;;;;;-4.71;100.00;101321.75;1663993;84;21057;-91
2021/12/30 06:26:57;;;;;;;41.88;23.67;;;;;;;-4.69;100.00;101322.61;1670506;83;21085;-89
2021/12/30 06:29:24;;;;;;;44.45;24.12;;;;;;;-4.66;100.00;101318.77;1691774;83;21758;-90
2021/12/30 06:31:51;;;;;;;43.85;25.12;;;;;;;-4.64;100.00;101319.62;1668329;83;21075;-89
2021/12/30 06:34:18;;;;;;;42.95;23.27;;;;;;;-4.64;100.00;101323.44;1673348;83;21230;-92
2021/12/30 06:36:45;;;;;;;48.78;25.92;;;;;;;-4.62;100.00;101327.67;1669292;83;21101;-92
2021/12/30 06:39:15;;;;;;;42.73;23.87;;;;;;;-4.65;100.00;101323.88;1676162;83;21527;-92
2021/12/30 06:41:42;;;;;;;51.48;26.52;;;;;;;-4.67;100.00;101328.11;1673152;83;21141;-91
2021/12/30 06:44:09;;;;;;;42.33;23.80;;;;;;;-4.64;100.00;101331.06;1647451;85;21627;-91
2021/12/30 06:46:36;;;;;;;48.08;25.57;;;;;;;-4.64;100.00;101322.17;1675548;84;21139;-89
2021/12/30 06:49:09;;;;;;;41.35;23.05;;;;;;;-4.60;100.00;101331.06;1667896;84;21205;-93
2021/12/30 06:51:36;;;;;;;44.18;24.18;;;;;;;-4.53;100.00;101324.70;1676718;83;21109;-90
2021/12/30 06:54:04;;;;;;;43.17;23.75;;;;;;;-4.44;100.00;101333.59;1676065;83;21053;-96
2021/12/30 06:56:32;;;;;;;44.85;24.05;;;;;;;-4.38;100.00;101329.75;1675109;84;21238;-93
2021/12/30 06:58:58;;;;;;;43.45;24.37;;;;;;;-4.36;100.00;101332.29;1664919;84;21169;-90
2021/12/30 07:01:29;;;;;;;41.35;23.22;;;;;;;-4.33;100.00;101332.30;1673997;83;21126;-91
2021/12/30 07:03:57;;;;;;;43.98;24.40;;;;;;;-4.28;100.00;101334.39;1655892;84;21584;-95
2021/12/30 07:06:24;;;;;;;39.45;23.00;;;;;;;-4.26;100.00;101337.78;1684648;83;21015;-94
2021/12/30 07:08:52;;;;;;;42.17;24.05;;;;;;;-4.20;100.00;101345.40;1678405;84;21137;-93
2021/12/30 07:11:20;;;;;;;43.02;24.07;;;;;;;-4.18;100.00;101344.98;1666802;83;39995;-94
2021/12/30 07:13:47;;;;;;;45.23;24.90;;;;;;;-4.18;100.00;101346.69;1681763;83;21043;-92
2021/12/30 07:16:14;;;;;;;47.90;26.33;;;;;;;-4.15;100.00;101354.30;1672846;84;21169;-91
2021/12/30 07:18:41;;;;;;;48.85;26.15;;;;;;;-4.20;100.00;101349.66;1685531;83;21086;-94
2021/12/30 07:21:08;;;;;;;44.42;23.80;;;;;;;-4.25;100.00;101356.45;1663141;84;21219;-92
2021/12/30 07:23:36;;;;;;;49.67;26.45;;;;;;;-4.31;100.00;101365.77;1656722;84;21676;-91
2021/12/30 07:26:03;;;;;;;47.45;24.40;;;;;;;-4.36;100.00;101367.89;1632698;85;21125;-92
2021/12/30 07:28:30;;;;;;;40.92;23.75;;;;;;;-4.37;100.00;101363.68;1612137;87;22265;-91
2021/12/30 07:31:11;;;;;;;46.10;25.60;;;;;;;-4.34;100.00;101370.02;1582267;87;21114;-89
2021/12/30 07:33:38;;;;;;;42.35;23.77;;;;;;;-4.32;100.00;101368.33;1612175;87;21720;-90
2021/12/30 07:36:05;;;;;;;42.35;24.07;;;;;;;-4.27;100.00;101367.88;1632647;86;21672;-88
2021/12/30 07:38:33;;;;;;;38.65;22.27;;;;;;;-4.19;100.00;101374.24;1611226;86;21066;-91
2021/12/30 07:41:00;;;;;;;44.23;23.38;;;;;;;-4.13;100.00;101374.22;1654214;85;21941;-93
2021/12/30 07:43:27;;;;;;;41.50;24.30;;;;;;;-4.05;100.00;101371.68;1674172;83;21059;-91
2021/12/30 07:45:54;;;;;;;43.85;24.02;;;;;;;-3.98;100.00;101367.00;1662279;83;21107;-90
2021/12/30 07:48:21;;;;;;;40.15;23.52;;;;;;;-3.91;100.00;101369.94;1646514;84;21802;-92
2021/12/30 07:50:49;;;;;;;43.28;25.10;;;;;;;-3.83;100.00;101372.04;1662679;83;21564;-90
2021/12/30 07:53:18;;;;;;;43.90;26.85;;;;;;;-3.74;100.00;101372.42;1676216;83;21127;-90
2021/12/30 07:55:45;;;;;;;42.67;25.57;;;;;;;-3.69;100.00;101373.67;1674234;83;21530;-91
2021/12/30 07:58:12;;;;;;;42.50;24.45;;;;;;;-3.66;100.00;101377.06;1690696;83;21200;-91
2021/12/30 08:00:40;;;;;;;39.55;23.98;;;;;;;-3.61;100.00;101378.31;1686446;84;21275;-91
2021/12/30 08:03:07;;;;;;;47.85;26.02;;;;;;;-3.54;100.00;101379.98;1684948;84;21241;-91
2021/12/30 08:05:34;;;;;;;37.42;22.20;;;;;;;-3.54;100.00;101381.25;1684652;84;22331;-91
2021/12/30 08:08:01;;;;;;;42.67;25.27;;;;;;;-3.50;100.00;101378.27;1683029;84;21631;-92
2021/12/30 08:10:29;;;;;;;41.30;24.32;;;;;;;-3.50;100.00;101377.86;1687604;84;21124;-90
2021/12/30 08:12:58;;;;;;;46.33;26.50;;;;;;;-3.49;100.00;101382.10;1640308;85;21230;-92
2021/12/30 08:15:25;;;;;;;42.50;26.57;;;;;;;-3.46;100.00;101374.87;1663323;83;21748;-92
2021/12/30 08:17:52;;;;;;;46.20;26.95;;;;;;;-3.40;100.00;101375.23;1656126;83;21714;-91
2021/12/30 08:20:21;;;;;;;43.48;24.65;;;;;;;-3.34;100.00;101372.69;1675687;84;21058;-92
2021/12/30 08:22:51;;;;;;;43.70;25.02;;;;;;;-3.27;100.00;101378.58;1665113;84;21118;-92
2021/12/30 08:25:21;;;;;;;50.20;28.25;;;;;;;-3.27;100.00;101369.25;1661915;84;21893;-90
2021/12/30 08:27:48;;;;;;;41.42;24.82;;;;;;;-3.29;100.00;101376.05;1658592;84;21161;-90
2021/12/30 08:30:19;;;;;;;46.30;26.97;;;;;;;-3.28;100.00;101371.78;1666452;83;21121;-91
2021/12/30 08:32:47;;;;;;;43.98;25.27;;;;;;;-3.31;100.00;101371.81;1683698;83;22194;-90
2021/12/30 08:35:17;;;;;;;49.55;28.05;;;;;;;-3.37;100.00;101375.23;1665564;83;21096;-91
2021/12/30 08:37:45;;;;;;;43.58;26.27;;;;;;;-3.43;100.00;101379.92;1669045;83;21158;-95
2021/12/30 08:40:14;;;;;;;47.08;27.05;;;;;;;-3.49;100.00;101378.28;1635212;85;21069;-93
2021/12/30 08:42:42;;;;;;;49.03;28.65;;;;;;;-3.52;100.00;101385.05;1641891;85;21298;-89
2021/12/30 08:45:10;;;;;;;47.80;28.55;;;;;;;-3.58;100.00;101379.59;1673179;84;21148;-89
2021/12/30 08:47:38;;;;;;;47.20;27.58;;;;;;;-3.60;100.00;101386.37;1666971;84;21041;-90
2021/12/30 08:50:11;;;;;;;46.63;27.77;;;;;;;-3.58;100.00;101385.95;1668676;83;21066;-93
2021/12/30 08:52:38;;;;;;;47.23;27.22;;;;;;;-3.55;100.00;101385.09;1692529;82;21064;-90
2021/12/30 08:55:07;;;;;;;43.08;24.98;;;;;;;-3.56;100.00;101384.22;1703835;82;21124;-95
2021/12/30 08:57:40;;;;;;;45.78;26.52;;;;;;;-3.56;100.00;101392.30;1677366;83;21049;-92
2021/12/30 09:00:16;;;;;;;47.73;26.82;;;;;;;-3.55;100.00;101380.83;1673841;82;21156;-90
2021/12/30 09:02:43;;;;;;;54.25;30.23;;;;;;;-3.55;100.00;101381.27;1603801;86;21071;-92
2021/12/30 09:05:34;;;;;;;49.85;29.00;;;;;;;-3.62;100.00;101382.15;1667477;81;22478;31
2021/12/30 09:08:02;;;;;;;47.62;27.62;;;;;;;-3.65;100.00;101388.11;1580620;88;21193;-94
2021/12/30 09:10:40;;;;;;;49.00;27.60;;;;;;;-3.62;100.00;101392.33;1635105;84;21087;-94
2021/12/30 09:13:04;;;;;;;48.02;27.55;;;;;;;-3.61;100.00;101393.59;1615846;86;21486;-93
2021/12/30 09:15:32;;;;;;;45.80;26.40;;;;;;;-3.61;100.00;101383.41;1600013;86;21148;-94
2021/12/30 09:17:59;;;;;;;45.00;25.68;;;;;;;-3.56;100.00;101389.31;1622264;86;21733;-94
2021/12/30 09:20:28;;;;;;;47.43;28.07;;;;;;;-3.54;100.00;101388.89;1644870;84;21061;-96
2021/12/30 09:22:57;;;;;;;47.95;27.05;;;;;;;-3.50;100.00;101384.62;1663046;83;21178;-94
2021/12/30 09:25:25;;;;;;;41.90;25.08;;;;;;;-3.40;100.00;101396.89;1642252;84;21616;-94
2021/12/30 09:27:55;;;;;;;44.40;25.20;;;;;;;-3.29;100.00;101386.23;1634378;84;21166;-95
2021/12/30 09:30:24;;;;;;;41.63;24.63;;;;;;;-3.26;100.00;101382.41;1638121;84;21178;-94
2021/12/30 09:32:57;;;;;;;47.80;28.20;;;;;;;-3.28;100.00;101380.28;1665773;84;21134;-94
2021/12/30 09:35:24;;;;;;;49.77;27.17;;;;;;;-3.33;100.00;101382.02;1656159;84;21645;-93
2021/12/30 09:37:52;;;;;;;46.77;26.70;;;;;;;-3.31;100.00;101379.46;1665422;84;21166;-94
2021/12/30 09:40:20;;;;;;;49.13;25.92;;;;;;;-3.30;100.00;101379.88;1633457;85;21186;-94
2021/12/30 09:42:53;;;;;;;42.03;25.57;;;;;;;-3.27;100.00;101380.71;1627877;85;21090;-89
2021/12/30 09:45:21;;;;;;;43.85;24.60;;;;;;;-3.24;100.00;101384.94;1598552;88;21139;-88
2021/12/30 09:47:55;;;;;;;41.80;24.52;;;;;;;-3.22;100.00;101377.70;1617687;86;21103;-92
2021/12/30 09:50:27;;;;;;;45.25;25.65;;;;;;;-3.18;100.00;101378.12;1592267;87;21137;-91
2021/12/30 09:52:57;;;;;;;41.68;24.72;;;;;;;-3.07;100.00;101369.13;1641233;85;21587;-91
2021/12/30 09:55:25;;;;;;;43.50;25.30;;;;;;;-2.96;100.00;101373.29;1623334;86;21068;-94
2021/12/30 09:57:54;;;;;;;40.75;23.35;;;;;;;-2.88;100.00;101371.12;1623516;86;21199;-92
2021/12/30 10:00:23;;;;;;;43.17;22.77;;;;;;;-2.79;100.00;101379.56;1669852;84;21564;-94
2021/12/30 10:03:03;;;;;;;39.53;23.65;;;;;;;-2.75;100.00;101372.30;1654668;83;21034;-90
2021/12/30 10:05:41;;;;;;;42.38;24.90;;;;;;;-2.71;100.00;101371.43;1629674;84;21332;-91
2021/12/30 10:08:18;;;;;;;38.00;22.98;;;;;;;-2.67;100.00;101374.36;1637860;85;21224;-94
2021/12/30 10:10:53;;;;;;;42.17;23.55;;;;;;;-2.62;100.00;101379.42;1589195;87;21113;-96
2021/12/30 10:13:29;;;;;;;39.15;24.43;;;;;;;-2.63;100.00;101377.73;1669240;83;21054;-92
2021/12/30 10:16:12;;;;;;;37.73;23.32;;;;;;;-2.67;100.00;101378.19;1635227;85;21075;-93
2021/12/30 10:18:54;;;;;;;50.15;24.60;;;;;;;-2.63;100.00;101382.41;1632771;85;21780;-90
2021/12/30 10:21:25;;;;;;;76.00;28.60;;;;;;;-2.53;100.00;101383.17;1653540;85;21091;-92
2021/12/30 10:23:54;;;;;;;;;;;;;;;-2.00;100.00;101380.16;1636189;85;21654;-91
2021/12/30 10:26:23;;;;;;;50.60;24.85;;;;;;;-1.78;100.00;101374.36;1634217;85;20688;-92
2021/12/30 10:28:57;;;;;;;46.50;24.43;;;;;;;-1.67;100.00;101367.84;1636457;85;21168;-94
2021/12/30 10:31:28;;;;;;;43.52;21.70;;;;;;;-1.61;100.00;101369.06;1612743;86;21683;-89
2021/12/30 10:34:06;;;;;;;50.83;25.65;;;;;;;-1.69;100.00;101365.31;1643219;85;21037;-91
2021/12/30 10:36:44;;;;;;;48.87;26.42;;;;;;;-1.89;100.00;101365.55;1649423;85;21050;-91
2021/12/30 10:39:30;;;;;;;50.17;25.43;;;;;;;-1.88;100.00;101363.41;1650674;84;21112;-92
2021/12/30 10:42:15;;;;;;;41.55;25.88;;;;;;;-1.75;100.00;101357.29;1644524;84;21121;-89
2021/12/30 10:44:57;;;;;;;48.15;26.62;;;;;;;-1.59;100.00;101359.66;1636467;85;21203;-92
2021/12/30 10:47:30;;;;;;;40.70;23.73;;;;;;;-1.57;100.00;101359.66;1611232;86;21567;-90
2021/12/30 10:50:09;;;;;;;49.10;27.95;;;;;;;-1.57;100.00;101357.94;1615534;86;21099;-95
2021/12/30 10:52:50;;;;;;;46.50;25.23;;;;;;;-1.65;100.00;101354.22;1620494;85;22253;-91
2021/12/30 10:55:18;;;;;;;51.63;27.82;;;;;;;-1.67;100.00;101357.21;1671717;84;21129;-84
2021/12/30 10:57:46;;;;;;;50.30;28.85;;;;;;;-1.51;100.00;101359.57;1653056;84;21213;-83
2021/12/30 11:00:31;;;;;;;54.65;29.85;;;;;;;-1.30;100.00;101361.83;1647821;85;21017;-81
2021/12/30 11:03:24;;;;;;;47.38;28.50;;;;;;;-1.09;100.00;101359.86;1641022;86;21137;-81
2021/12/30 11:06:13;;;;;;;58.60;29.67;;;;;;;-1.04;100.00;101360.62;1641341;86;21054;-81
2021/12/30 11:08:41;;;;;;;48.75;29.00;;;;;;;-1.08;100.00;101361.52;1647434;85;21130;-93
2021/12/30 11:11:28;;;;;;;54.25;30.97;;;;;;;-0.96;100.00;101360.08;1637899;85;21123;-91
2021/12/30 11:14:03;;;;;;;48.10;29.10;;;;;;;-1.05;100.00;101355.55;1634224;85;21074;-93
2021/12/30 11:16:31;;;;;;;45.28;25.90;;;;;;;-1.19;100.00;101362.13;1618281;86;21184;-92
2021/12/30 11:18:59;;;;;;;54.05;31.77;;;;;;;-1.28;100.00;101366.50;1632216;85;21091;-85
2021/12/30 11:21:44;;;;;;;54.18;30.35;;;;;;;-1.42;100.00;101364.56;1677543;84;20980;-88